createdAt,value
2023-05-18T00:01:07.658Z,100348.66
2023-05-18T00:04:10.162Z,100347.22
2023-05-18T00:07:13.133Z,100353.00
2023-05-18T00:10:18.543Z,100361.22
2023-05-18T00:13:20.595Z,100358.81
2023-05-18T00:16:22.994Z,100366.09
2023-05-18T00:19:25.133Z,100355.06
2023-05-18T00:22:27.544Z,100358.25
2023-05-18T00:25:29.722Z,100370.75
2023-05-18T00:28:32.158Z,100363.28
2023-05-18T00:31:36.266Z,100370.44
2023-05-18T00:34:38.612Z,100368.34
2023-05-18T00:37:40.579Z,100358.81
2023-05-18T00:40:42.948Z,100360.09
2023-05-18T00:43:46.540Z,100360.53
2023-05-18T00:46:50.097Z,100360.16
2023-05-18T00:49:52.293Z,100356.84
2023-05-18T00:52:54.960Z,100359.25
2023-05-18T00:55:57.013Z,100359.37
2023-05-18T00:59:00.746Z,100359.25
2023-05-18T01:02:03.118Z,100365.50
2023-05-18T01:05:05.996Z,100363.63
2023-05-18T01:08:08.593Z,100370.97
2023-05-18T01:11:23.133Z,100375.25
2023-05-18T01:14:34.178Z,100364.22
2023-05-18T01:17:42.769Z,100376.03
2023-05-18T01:20:49.452Z,100377.53
2023-05-18T01:23:57.617Z,100381.75
2023-05-18T01:27:00.700Z,100382.34
2023-05-18T01:30:04.675Z,100391.97
2023-05-18T01:33:10.706Z,100392.56
2023-05-18T01:36:13.362Z,100390.16
2023-05-18T01:39:15.707Z,100385.41
2023-05-18T01:42:21.084Z,100392.56
2023-05-18T01:45:26.424Z,100394.38
2023-05-18T01:48:32.320Z,100398.12
2023-05-18T01:51:38.017Z,100405.28
2023-05-18T01:54:43.011Z,100401.75
2023-05-18T01:57:46.520Z,100405.44
2023-05-18T02:00:49.891Z,100408.66
2023-05-18T02:03:52.303Z,100409.87
2023-05-18T02:06:55.268Z,100415.09
2023-05-18T02:09:57.556Z,100414.13
2023-05-18T02:12:59.573Z,100416.09
2023-05-18T02:16:03.979Z,100413.25
2023-05-18T02:19:06.123Z,100413.47
2023-05-18T02:22:08.602Z,100423.44
2023-05-18T02:25:10.983Z,100427.72
2023-05-18T02:28:13.301Z,100433.63
2023-05-18T02:31:15.646Z,100439.22
2023-05-18T02:34:18.260Z,100440.28
2023-05-18T02:37:22.997Z,100446.06
2023-05-18T02:40:25.052Z,100442.41
2023-05-18T02:43:27.497Z,100446.00
2023-05-18T02:46:29.794Z,100445.56
2023-05-18T02:49:33.448Z,100445.66
2023-05-18T02:52:35.561Z,100441.53
2023-05-18T02:55:38.492Z,100453.44
2023-05-18T02:58:43.734Z,100447.78
2023-05-18T03:01:46.540Z,100448.72
2023-05-18T03:04:53.977Z,100444.00
2023-05-18T03:07:56.460Z,100438.81
2023-05-18T03:10:59.032Z,100441.25
2023-05-18T03:14:01.399Z,100442.72
2023-05-18T03:17:06.036Z,100448.00
2023-05-18T03:20:10.585Z,100448.91
2023-05-18T03:23:13.128Z,100446.94
2023-05-18T03:26:16.701Z,100449.38
2023-05-18T03:29:18.713Z,100447.88
2023-05-18T03:32:21.325Z,100451.88
2023-05-18T03:35:23.501Z,100455.34
2023-05-18T03:38:26.569Z,100458.63
2023-05-18T03:41:30.128Z,100460.19
2023-05-18T03:44:33.399Z,100464.47
2023-05-18T03:47:35.793Z,100474.50
2023-05-18T03:50:39.274Z,100472.09
2023-05-18T03:53:42.220Z,100473.66
2023-05-18T03:56:44.632Z,100470.41
2023-05-18T03:59:46.933Z,100480.41
2023-05-18T04:02:51.891Z,100484.28
2023-05-18T04:05:56.245Z,100480.72
2023-05-18T04:09:04.014Z,100475.69
2023-05-18T04:12:06.942Z,100481.37
2023-05-18T04:15:09.575Z,100483.06
2023-05-18T04:18:13.719Z,100487.44
2023-05-18T04:21:17.568Z,100495.88
2023-05-18T04:24:21.405Z,100493.44
2023-05-18T04:27:25.082Z,100493.22
2023-05-18T04:30:29.574Z,100500.94
2023-05-18T04:33:32.686Z,100506.50
2023-05-18T04:36:35.744Z,100502.09
2023-05-18T04:39:39.546Z,100500.59
2023-05-18T04:42:48.267Z,100506.28
2023-05-18T04:45:52.492Z,100495.66
2023-05-18T04:48:58.012Z,100505.00
2023-05-18T04:52:01.105Z,100503.25
2023-05-18T04:55:04.463Z,100508.97
2023-05-18T04:58:10.379Z,100502.44
2023-05-18T05:01:15.547Z,100511.50
2023-05-18T05:04:18.317Z,100505.00
2023-05-18T05:07:21.390Z,100519.41
2023-05-18T05:10:23.477Z,100515.75
2023-05-18T05:13:26.060Z,100514.78
2023-05-18T05:16:28.360Z,100513.00
2023-05-18T05:19:31.206Z,100515.41
2023-05-18T05:22:34.504Z,100518.56
2023-05-18T05:25:36.926Z,100517.19
2023-05-18T05:28:39.142Z,100525.25
2023-05-18T05:31:42.024Z,100527.72
2023-05-18T05:34:46.921Z,100527.84
2023-05-18T05:37:49.682Z,100533.59
2023-05-18T05:40:52.043Z,100536.97
2023-05-18T05:43:54.409Z,100537.19
2023-05-18T05:46:56.644Z,100534.72
2023-05-18T05:50:00.399Z,100542.84
2023-05-18T05:53:04.808Z,100542.66
2023-05-18T05:56:08.448Z,100538.03
2023-05-18T05:59:11.241Z,100550.00
2023-05-18T06:02:14.436Z,100550.22
2023-05-18T06:05:17.157Z,100557.47
2023-05-18T06:08:21.780Z,100559.37
2023-05-18T06:11:24.505Z,100561.72
2023-05-18T06:14:26.467Z,100564.66
2023-05-18T06:17:30.597Z,100562.53
2023-05-18T06:20:33.495Z,100563.88
2023-05-18T06:23:35.999Z,100572.53
2023-05-18T06:26:38.691Z,100563.81
2023-05-18T06:29:41.933Z,100573.81
2023-05-18T06:32:46.845Z,100577.09
2023-05-18T06:35:49.526Z,100573.00
2023-05-18T06:38:52.678Z,100578.12
2023-05-18T06:41:55.378Z,100576.00
2023-05-18T06:44:57.606Z,100576.94
2023-05-18T06:48:02.473Z,100583.97
2023-05-18T06:51:05.275Z,100590.16
2023-05-18T06:54:08.582Z,100591.84
2023-05-18T06:57:10.873Z,100596.63
2023-05-18T07:00:13.812Z,100597.56
2023-05-18T07:03:16.526Z,100593.94
2023-05-18T07:06:19.010Z,100599.25
2023-05-18T07:09:22.472Z,100603.72
2023-05-18T07:12:26.212Z,100601.91
2023-05-18T07:15:28.399Z,100608.84
2023-05-18T07:18:34.433Z,100613.37
2023-05-18T07:21:36.583Z,100615.38
2023-05-18T07:24:39.070Z,100615.38
2023-05-18T07:27:41.786Z,100621.47
2023-05-18T07:30:44.120Z,100618.22
2023-05-18T07:33:46.220Z,100626.41
2023-05-18T07:36:48.898Z,100623.97
2023-05-18T07:39:51.446Z,100626.84
2023-05-18T07:42:53.844Z,100627.97
2023-05-18T07:45:55.899Z,100633.78
2023-05-18T07:48:58.238Z,100640.37
2023-05-18T07:52:02.224Z,100639.12
2023-05-18T07:55:04.826Z,100639.19
2023-05-18T07:58:06.810Z,100632.53
2023-05-18T08:01:09.048Z,100641.16
2023-05-18T08:04:12.613Z,100640.06
2023-05-18T08:07:14.990Z,100635.03
2023-05-18T08:10:17.581Z,100645.62
2023-05-18T08:13:19.697Z,100636.09
2023-05-18T08:16:22.026Z,100644.66
2023-05-18T08:19:24.418Z,100646.38
2023-05-18T08:22:26.775Z,100649.00
2023-05-18T08:25:29.056Z,100639.81
2023-05-18T08:28:32.013Z,100645.38
2023-05-18T08:31:34.050Z,100654.53
2023-05-18T08:34:36.842Z,100654.91
2023-05-18T08:37:39.853Z,100656.47
2023-05-18T08:40:43.594Z,100651.56
2023-05-18T08:43:47.106Z,100653.84
2023-05-18T08:46:51.147Z,100652.19
2023-05-18T08:49:55.905Z,100654.84
2023-05-18T08:53:01.175Z,100658.59
2023-05-18T08:56:03.341Z,100657.56
2023-05-18T08:59:08.465Z,100662.34
2023-05-18T09:02:10.892Z,100655.34
2023-05-18T09:05:14.144Z,100658.53
2023-05-18T09:08:16.335Z,100655.09
2023-05-18T09:11:18.803Z,100654.97
2023-05-18T09:14:25.777Z,100650.84
2023-05-18T09:17:28.225Z,100654.66
2023-05-18T09:20:30.525Z,100655.56
2023-05-18T09:23:33.490Z,100658.88
2023-05-18T09:26:35.703Z,100657.94
2023-05-18T09:29:51.153Z,100664.06
2023-05-18T09:32:53.432Z,100668.63
2023-05-18T09:35:55.959Z,100670.44
2023-05-18T09:38:58.807Z,100670.00
2023-05-18T09:42:02.805Z,100665.25
2023-05-18T09:45:15.607Z,100663.28
2023-05-18T09:48:18.898Z,100672.19
2023-05-18T09:51:25.154Z,100673.59
2023-05-18T09:54:27.993Z,100669.09
2023-05-18T09:57:30.034Z,100668.28
2023-05-18T10:00:33.079Z,100674.81
2023-05-18T10:03:40.618Z,100670.97
2023-05-18T10:06:49.441Z,100669.19
2023-05-18T10:10:01.591Z,100668.59
2023-05-18T10:13:04.513Z,100669.25
2023-05-18T10:16:08.075Z,100668.59
2023-05-18T10:19:11.838Z,100676.22
2023-05-18T10:22:16.439Z,100675.69
2023-05-18T10:25:19.959Z,100668.06
2023-05-18T10:28:27.489Z,100669.81
2023-05-18T10:31:30.714Z,100673.00
2023-05-18T10:34:33.877Z,100676.22
2023-05-18T10:37:38.131Z,100674.56
2023-05-18T10:40:42.456Z,100677.13
2023-05-18T10:43:46.013Z,100682.44
2023-05-18T10:46:49.411Z,100681.19
2023-05-18T10:49:52.365Z,100675.97
2023-05-18T10:52:55.819Z,100675.06
2023-05-18T10:55:58.470Z,100670.41
2023-05-18T10:59:00.925Z,100670.16
2023-05-18T11:02:03.742Z,100676.47
2023-05-18T11:05:06.888Z,100681.66
2023-05-18T11:08:09.840Z,100673.25
2023-05-18T11:11:12.221Z,100675.75
2023-05-18T11:14:15.171Z,100677.25
2023-05-18T11:17:26.104Z,100685.66
2023-05-18T11:20:28.201Z,100675.50
2023-05-18T11:23:33.634Z,100678.47
2023-05-18T11:26:43.399Z,100682.53
2023-05-18T11:29:47.559Z,100685.63
2023-05-18T11:32:51.101Z,100687.44
2023-05-18T11:36:04.287Z,100693.94
2023-05-18T11:39:11.275Z,100693.84
2023-05-18T11:42:18.098Z,100691.34
2023-05-18T11:45:20.173Z,100693.91
2023-05-18T11:48:26.146Z,100697.38
2023-05-18T11:51:31.076Z,100701.59
2023-05-18T11:54:34.365Z,100694.59
2023-05-18T11:57:36.386Z,100699.28
2023-05-18T12:00:39.369Z,100695.09
2023-05-18T12:03:41.956Z,100700.78
2023-05-18T12:06:44.248Z,100701.25
2023-05-18T12:09:47.544Z,100701.03
2023-05-18T12:12:51.809Z,100700.63
2023-05-18T12:15:55.812Z,100702.03
2023-05-18T12:18:59.996Z,100708.28
2023-05-18T12:22:04.405Z,100707.09
2023-05-18T12:25:07.353Z,100709.62
2023-05-18T12:28:10.057Z,100709.13
2023-05-18T12:31:13.196Z,100705.84
2023-05-18T12:34:16.253Z,100710.03
2023-05-18T12:37:20.086Z,100703.16
2023-05-18T12:40:23.888Z,100707.34
2023-05-18T12:43:27.048Z,100704.00
2023-05-18T12:46:29.694Z,100701.97
2023-05-18T12:49:42.440Z,100700.19
2023-05-18T12:52:44.756Z,100703.47
2023-05-18T12:55:56.427Z,100701.41
2023-05-18T12:58:59.720Z,100696.88
2023-05-18T13:02:01.905Z,100708.19
2023-05-18T13:05:08.812Z,100694.69
2023-05-18T13:08:15.212Z,100703.00
2023-05-18T13:11:17.735Z,100703.78
2023-05-18T13:14:21.401Z,100702.91
2023-05-18T13:17:23.900Z,100698.59
2023-05-18T13:20:36.487Z,100704.41
2023-05-18T13:23:39.525Z,100699.78
2023-05-18T13:26:41.644Z,100698.97
2023-05-18T13:29:44.096Z,100706.06
2023-05-18T13:32:46.685Z,100707.69
2023-05-18T13:35:49.961Z,100705.28
2023-05-18T13:38:52.411Z,100713.16
2023-05-18T13:41:54.851Z,100714.59
2023-05-18T13:44:56.952Z,100706.06
2023-05-18T13:47:59.477Z,100700.47
2023-05-18T13:51:01.640Z,100706.59
2023-05-18T13:54:04.472Z,100701.81
2023-05-18T13:57:07.932Z,100702.59
2023-05-18T14:00:13.353Z,100710.34
2023-05-18T14:03:17.633Z,100709.84
2023-05-18T14:06:20.881Z,100720.12
2023-05-18T14:09:23.234Z,100718.44
2023-05-18T14:12:25.277Z,100716.47
2023-05-18T14:15:27.725Z,100716.47
2023-05-18T14:18:29.766Z,100714.84
2023-05-18T14:21:32.208Z,100709.56
2023-05-18T14:24:34.204Z,100710.53
2023-05-18T14:27:36.840Z,100719.22
2023-05-18T14:30:38.926Z,100721.25
2023-05-18T14:33:41.727Z,100720.88
2023-05-18T14:36:43.837Z,100714.50
2023-05-18T14:39:46.346Z,100718.56
2023-05-18T14:42:48.479Z,100726.09
2023-05-18T14:46:04.258Z,100726.75
2023-05-18T14:49:10.084Z,100724.50
2023-05-18T14:52:12.578Z,100728.13
2023-05-18T14:55:14.717Z,100732.69
2023-05-18T14:58:17.178Z,100728.34
2023-05-18T15:01:19.893Z,100732.25
2023-05-18T15:04:22.533Z,100730.31
2023-05-18T15:07:24.617Z,100730.25
2023-05-18T15:10:27.007Z,100735.31
2023-05-18T15:13:29.010Z,100734.59
2023-05-18T15:16:31.786Z,100731.47
2023-05-18T15:19:34.034Z,100731.69
2023-05-18T15:22:38.288Z,100730.53
2023-05-18T15:25:40.825Z,100739.03
2023-05-18T15:28:44.910Z,100729.88
2023-05-18T15:31:47.892Z,100734.78
2023-05-18T15:34:51.524Z,100737.31
2023-05-18T15:37:53.588Z,100743.53
2023-05-18T15:40:56.042Z,100733.94
2023-05-18T15:43:58.020Z,100742.47
2023-05-18T15:47:00.847Z,100740.78
2023-05-18T15:50:03.203Z,100732.28
2023-05-18T15:53:05.987Z,100735.75
2023-05-18T15:56:08.085Z,100743.22
2023-05-18T15:59:10.580Z,100737.94
2023-05-18T16:02:12.732Z,100738.53
2023-05-18T16:05:15.212Z,100738.06
2023-05-18T16:08:17.313Z,100742.22
2023-05-18T16:11:19.743Z,100747.94
2023-05-18T16:14:21.823Z,100743.59
2023-05-18T16:17:24.323Z,100747.09
2023-05-18T16:20:26.464Z,100746.09
2023-05-18T16:23:28.833Z,100742.63
2023-05-18T16:26:32.355Z,100750.41
2023-05-18T16:29:34.829Z,100752.81
2023-05-18T16:32:37.124Z,100752.56
2023-05-18T16:35:40.573Z,100761.12
2023-05-18T16:38:42.672Z,100755.25
2023-05-18T16:41:44.953Z,100759.34
2023-05-18T16:44:47.063Z,100756.47
2023-05-18T16:47:49.890Z,100754.41
2023-05-18T16:50:52.143Z,100753.72
2023-05-18T16:53:55.507Z,100758.03
2023-05-18T16:56:57.652Z,100760.56
2023-05-18T17:00:01.179Z,100769.69
2023-05-18T17:03:04.123Z,100765.84
2023-05-18T17:06:08.471Z,100760.06
2023-05-18T17:09:10.649Z,100752.00
2023-05-18T17:12:13.157Z,100752.84
2023-05-18T17:15:16.331Z,100756.91
2023-05-18T17:18:19.067Z,100752.09
2023-05-18T17:21:21.288Z,100765.59
2023-05-18T17:24:23.594Z,100773.28
2023-05-18T17:27:25.610Z,100778.91
2023-05-18T17:30:28.146Z,100774.44
2023-05-18T17:33:30.232Z,100780.56
2023-05-18T17:36:32.908Z,100783.34
2023-05-18T17:39:35.061Z,100776.72
2023-05-18T17:42:37.381Z,100789.44
2023-05-18T17:45:39.383Z,100779.22
2023-05-18T17:48:41.756Z,100777.75
2023-05-18T17:51:43.899Z,100775.81
2023-05-18T17:54:46.428Z,100774.47
2023-05-18T17:57:48.519Z,100763.50
2023-05-18T18:00:50.958Z,100764.12
2023-05-18T18:03:53.482Z,100751.25
2023-05-18T18:06:55.934Z,100755.91
2023-05-18T18:09:58.270Z,100772.41
2023-05-18T18:13:00.700Z,100771.97
2023-05-18T18:16:03.339Z,100779.94
2023-05-18T18:19:05.509Z,100777.50
2023-05-18T18:22:07.935Z,100773.44
2023-05-18T18:25:10.053Z,100785.03
2023-05-18T18:28:15.122Z,100794.19
2023-05-18T18:31:17.623Z,100795.84
2023-05-18T18:34:19.977Z,100806.41
2023-05-18T18:37:22.086Z,100811.16
2023-05-18T18:40:24.532Z,100819.81
2023-05-18T18:43:27.886Z,100814.16
2023-05-18T18:46:30.337Z,100816.50
2023-05-18T18:49:32.558Z,100815.75
2023-05-18T18:52:34.976Z,100808.50
2023-05-18T18:55:37.404Z,100807.88
2023-05-18T18:58:39.880Z,100808.06
2023-05-18T19:01:42.028Z,100811.75
2023-05-18T19:04:44.454Z,100821.56
2023-05-18T19:07:46.748Z,100814.38
2023-05-18T19:10:49.178Z,100815.34
2023-05-18T19:13:51.332Z,100822.50
2023-05-18T19:16:54.719Z,100825.16
2023-05-18T19:19:56.843Z,100836.53
2023-05-18T19:22:59.277Z,100829.81
2023-05-18T19:26:02.182Z,100840.56
2023-05-18T19:29:04.744Z,100842.78
2023-05-18T19:32:06.880Z,100843.72
2023-05-18T19:35:09.567Z,100852.91
2023-05-18T19:38:11.604Z,100849.06
2023-05-18T19:41:14.508Z,100847.41
2023-05-18T19:44:16.663Z,100852.47
2023-05-18T19:47:19.119Z,100853.94
2023-05-18T19:50:21.390Z,100863.31
2023-05-18T19:53:23.812Z,100870.81
2023-05-18T19:56:26.195Z,100876.94
2023-05-18T19:59:29.534Z,100873.16
2023-05-18T20:02:32.035Z,100880.22
2023-05-18T20:05:35.495Z,100885.16
2023-05-18T20:08:37.982Z,100884.41
2023-05-18T20:11:40.528Z,100888.41
2023-05-18T20:14:43.447Z,100895.91
2023-05-18T20:17:46.114Z,100890.97
2023-05-18T20:20:49.937Z,100895.72
2023-05-18T20:23:52.314Z,100889.19
2023-05-18T20:26:54.326Z,100897.81
2023-05-18T20:29:56.714Z,100899.72
2023-05-18T20:32:58.898Z,100899.19
2023-05-18T20:36:01.771Z,100904.16
2023-05-18T20:39:04.254Z,100903.28
2023-05-18T20:42:06.973Z,100906.12
2023-05-18T20:45:09.400Z,100904.47
2023-05-18T20:48:12.322Z,100904.03
2023-05-18T20:51:19.261Z,100906.16
2023-05-18T20:54:23.173Z,100897.72
2023-05-18T20:57:25.213Z,100901.09
2023-05-18T21:00:27.647Z,100900.34
2023-05-18T21:03:30.407Z,100905.50
2023-05-18T21:06:32.908Z,100901.19
2023-05-18T21:09:35.031Z,100911.72
2023-05-18T21:12:38.004Z,100909.44
2023-05-18T21:15:40.103Z,100903.19
2023-05-18T21:18:42.602Z,100915.19
2023-05-18T21:21:44.745Z,100920.47
2023-05-18T21:24:47.107Z,100914.16
2023-05-18T21:27:49.248Z,100919.75
2023-05-18T21:30:52.124Z,100920.50
2023-05-18T21:33:54.276Z,100922.16
2023-05-18T21:36:56.809Z,100914.56
2023-05-18T21:39:59.337Z,100916.47
2023-05-18T21:43:02.642Z,100924.06
2023-05-18T21:46:05.949Z,100927.31
2023-05-18T21:49:10.375Z,100925.78
2023-05-18T21:52:15.388Z,100931.13
2023-05-18T21:55:17.975Z,100935.78
2023-05-18T21:58:20.794Z,100934.94
2023-05-18T22:01:24.002Z,100934.19
2023-05-18T22:04:26.588Z,100932.50
2023-05-18T22:07:28.954Z,100933.69
2023-05-18T22:10:32.462Z,100941.59
2023-05-18T22:13:35.018Z,100938.84
2023-05-18T22:16:37.404Z,100941.47
2023-05-18T22:19:39.554Z,100933.66
2023-05-18T22:22:42.072Z,100934.59
2023-05-18T22:25:44.922Z,100940.50
2023-05-18T22:28:47.451Z,100946.44
2023-05-18T22:31:49.446Z,100938.50
2023-05-18T22:34:52.176Z,100939.06
2023-05-18T22:37:54.685Z,100948.00
2023-05-18T22:40:57.053Z,100940.53
2023-05-18T22:43:59.420Z,100939.47
2023-05-18T22:47:02.392Z,100937.47
2023-05-18T22:50:04.951Z,100936.97
2023-05-18T22:53:10.351Z,100930.62
2023-05-18T22:56:16.084Z,100934.00
2023-05-18T22:59:18.488Z,100930.41
2023-05-18T23:02:20.647Z,100927.97
2023-05-18T23:05:23.209Z,100917.22
2023-05-18T23:08:26.082Z,100924.00
2023-05-18T23:11:28.773Z,100915.41
2023-05-18T23:14:32.519Z,100921.31
2023-05-18T23:17:38.914Z,100922.00
2023-05-18T23:20:42.000Z,100931.03
2023-05-18T23:23:45.918Z,100932.28
2023-05-18T23:26:48.034Z,100932.50
2023-05-18T23:29:50.515Z,100933.25
2023-05-18T23:32:53.164Z,100938.13
2023-05-18T23:35:59.829Z,100933.25
2023-05-18T23:39:02.340Z,100941.13
2023-05-18T23:42:05.018Z,100945.75
2023-05-18T23:45:07.452Z,100941.53
2023-05-18T23:48:10.247Z,100940.78
2023-05-18T23:51:16.516Z,100949.31
2023-05-18T23:54:19.414Z,100942.06
2023-05-18T23:57:23.924Z,100937.44
